»·PEaware :: N57364 L52-L88

N57364 :: L52-L88

FLIGHT INFORMATION

Flight Status: Arrived
Operator: Privately registered:
United States
More flights under this callsign
Pilot: Ed S. (33230)
Aircraft: Unknown
(P28S)
More flights by this aircraft type
Origin: L52 Oceano Co
United States
Destination: L88 New Cuyama
United States
More flights between these airports :: More routes between these airports
Route: WYNNR
File this flight plan on PilotEdge
Remarks:
Altitude:
(Current/Filed)
7,500ft
Speed:
(Current/Filed)
130kts
Departed: 12-Jan-21 01:21 AM
Arrived: 12-Jan-21 01:57 AM
Distance/Time
Traveled:
47nm/0:36
Distance/Time
To Go:
Arrived

Flight Plot

Page will automatically refresh every two minutes.


Map Options




Map Legend


Flown Route
Filed Route
Departure Airport
Arrival Airport
Navaid (VOR, NDB)
Fix

Horizontal Profiles

Position Reports

Time Latitude Longitude Heading Altitude Ground
Speed
12-Jan-21 01:15 35.102096 -120.622280 213 16ft 0kts
12-Jan-21 01:16 35.101869 -120.622300 195 16ft 0kts
12-Jan-21 01:17 35.101901 -120.622253 136 16ft 0kts
12-Jan-21 01:18 35.101901 -120.622253 136 16ft 0kts
12-Jan-21 01:19 35.101769 -120.622301 211 16ft 6kts
12-Jan-21 01:20 35.100105 -120.619697 303 16ft 14kts
12-Jan-21 01:21 35.110448 -120.640765 301 544ft 107kts
12-Jan-21 01:22 35.131253 -120.663455 21 1400ft 110kts
12-Jan-21 01:23 35.133731 -120.630405 102 2387ft 106kts
12-Jan-21 01:23 35.131578 -120.600662 91 3219ft 106kts
12-Jan-21 01:25 35.130339 -120.559392 91 4329ft 106kts
12-Jan-21 01:25 35.129388 -120.529230 91 5083ft 106kts
12-Jan-21 01:27 35.128024 -120.487692 91 6128ft 104kts
12-Jan-21 01:27 35.126993 -120.457802 91 6833ft 109kts
12-Jan-21 01:28 35.125607 -120.419418 92 7507ft 124kts
12-Jan-21 01:29 35.123885 -120.374179 92 7500ft 136kts
12-Jan-21 01:30 35.122085 -120.327825 92 7500ft 136kts
12-Jan-21 01:31 35.120217 -120.281387 92 7500ft 136kts
12-Jan-21 01:32 35.118286 -120.235062 92 7500ft 136kts
12-Jan-21 01:33 35.113931 -120.189261 120 7497ft 136kts
12-Jan-21 01:34 35.097430 -120.147679 112 7500ft 136kts
12-Jan-21 01:35 35.082412 -120.104872 113 7500ft 136kts
12-Jan-21 01:36 35.067356 -120.062350 113 7500ft 136kts
12-Jan-21 01:37 35.051962 -120.019132 113 7316ft 144kts
12-Jan-21 01:38 35.035551 -119.973323 113 6541ft 152kts
12-Jan-21 01:39 35.015765 -119.927676 118 5637ft 151kts
12-Jan-21 01:40 34.997501 -119.881512 114 4738ft 151kts
12-Jan-21 01:41 34.978422 -119.835929 119 3836ft 151kts
12-Jan-21 01:42 34.960787 -119.790506 114 3194ft 135kts
12-Jan-21 01:43 34.945822 -119.751368 114 3199ft 125kts
12-Jan-21 01:44 34.931199 -119.713354 114 3199ft 122kts
12-Jan-21 01:45 34.917679 -119.678234 114 3194ft 100kts
12-Jan-21 01:46 34.925441 -119.653191 10 3052ft 106kts
12-Jan-21 01:47 34.941300 -119.679808 282 2827ft 87kts
12-Jan-21 01:48 34.945712 -119.708744 271 3453ft 85kts
12-Jan-21 01:49 34.948605 -119.739090 244 4050ft 102kts
12-Jan-21 01:50 34.926437 -119.716744 126 3855ft 135kts
12-Jan-21 01:51 34.909005 -119.676047 110 3253ft 137kts
12-Jan-21 01:52 34.904182 -119.660270 110 3063ft 136kts
12-Jan-21 01:53 34.911253 -119.628336 349 2802ft 106kts
12-Jan-21 01:54 34.926418 -119.654441 297 2589ft 99kts
12-Jan-21 01:55 34.939096 -119.683553 295 2223ft 86kts
12-Jan-21 01:56 34.942435 -119.690879 356 2155ft 0kts
12-Jan-21 01:57 34.942356 -119.690063 62 2157ft 2kts
12-Jan-21 01:58 34.942469 -119.690016 352 2157ft 0kts
12-Jan-21 01:59 34.942469 -119.690016 352 2157ft 0kts
12-Jan-21 02:00 34.942469 -119.690016 352 2157ft 0kts
12-Jan-21 02:01 34.942469 -119.690016 352 2157ft 0kts
12-Jan-21 02:02 34.942469 -119.690016 352 2157ft 0kts
12-Jan-21 02:03 34.942469 -119.690016 352 2157ft 0kts
12-Jan-21 02:04 34.942469 -119.690016 352 2157ft 0kts
12-Jan-21 02:05 34.942469 -119.690016 352 2157ft 0kts

Navigation Log

Ident Type
Flight plan parsing failed, navigation log unavailable